createdAt,value
2018-12-02T00:00:24.626Z,8.80
2018-12-02T00:02:53.484Z,8.80
2018-12-02T00:05:22.012Z,8.80
2018-12-02T00:07:50.340Z,8.90
2018-12-02T00:10:19.359Z,8.90
2018-12-02T00:12:47.702Z,8.90
2018-12-02T00:15:26.479Z,8.90
2018-12-02T00:17:55.894Z,8.90
2018-12-02T00:20:24.226Z,9.00
2018-12-02T00:22:52.646Z,9.00
2018-12-02T00:25:21.021Z,9.00
2018-12-02T00:27:52.283Z,9.00
2018-12-02T00:30:23.622Z,9.00
2018-12-02T00:32:53.045Z,9.10
2018-12-02T00:35:21.358Z,9.10
2018-12-02T00:37:52.814Z,9.10
2018-12-02T00:40:21.846Z,9.10
2018-12-02T00:42:54.063Z,9.20
2018-12-02T00:45:23.483Z,9.20
2018-12-02T00:47:51.758Z,9.20
2018-12-02T00:50:20.102Z,9.20
2018-12-02T00:52:50.409Z,9.20
2018-12-02T00:55:21.080Z,9.20
2018-12-02T00:57:49.438Z,9.10
2018-12-02T01:00:17.839Z,9.20
2018-12-02T01:02:47.195Z,9.20
2018-12-02T01:05:17.154Z,9.20
2018-12-02T01:07:45.507Z,9.20
2018-12-02T01:10:19.526Z,9.20
2018-12-02T01:12:48.756Z,9.20
2018-12-02T01:15:18.192Z,9.20
2018-12-02T01:17:46.566Z,9.20
2018-12-02T01:20:18.812Z,9.20
2018-12-02T01:22:47.210Z,9.20
2018-12-02T01:25:15.794Z,9.20
2018-12-02T01:27:44.657Z,9.20
2018-12-02T01:30:24.168Z,9.20
2018-12-02T01:32:54.175Z,9.20
2018-12-02T01:35:22.601Z,9.20
2018-12-02T01:37:51.156Z,9.20
2018-12-02T01:40:22.346Z,9.30
2018-12-02T01:42:52.546Z,9.30
2018-12-02T01:45:22.551Z,9.30
2018-12-02T01:47:50.916Z,9.30
2018-12-02T01:50:20.720Z,9.30
2018-12-02T01:52:53.742Z,9.30
2018-12-02T01:55:22.030Z,9.20
2018-12-02T01:57:50.315Z,9.20
2018-12-02T02:00:21.338Z,9.20
2018-12-02T02:02:49.864Z,9.20
2018-12-02T02:05:19.076Z,9.10
2018-12-02T02:07:47.361Z,9.10
2018-12-02T02:10:19.669Z,9.20
2018-12-02T02:12:48.031Z,9.20
2018-12-02T02:15:17.508Z,9.20
2018-12-02T02:17:46.060Z,9.20
2018-12-02T02:20:15.160Z,9.20
2018-12-02T02:22:43.584Z,9.20
2018-12-02T02:25:14.706Z,9.30
2018-12-02T02:27:44.863Z,9.30
2018-12-02T02:30:16.179Z,9.30
2018-12-02T02:32:44.591Z,9.30
2018-12-02T02:35:35.499Z,9.30
2018-12-02T02:38:05.297Z,9.30
2018-12-02T02:40:33.750Z,9.30
2018-12-02T02:43:02.169Z,9.40
2018-12-02T02:45:30.559Z,9.40
2018-12-02T02:47:58.896Z,9.40
2018-12-02T02:50:41.742Z,9.40
2018-12-02T02:53:10.209Z,9.40
2018-12-02T02:55:38.517Z,9.40
2018-12-02T02:58:06.846Z,9.40
2018-12-02T03:00:35.387Z,9.50
2018-12-02T03:03:03.673Z,9.50
2018-12-02T03:05:32.096Z,9.50
2018-12-02T03:08:00.461Z,9.50
2018-12-02T03:10:28.731Z,9.50
2018-12-02T03:12:57.061Z,9.50
2018-12-02T03:15:25.435Z,9.50
2018-12-02T03:17:53.763Z,9.50
2018-12-02T03:20:22.646Z,9.50
2018-12-02T03:22:52.743Z,9.50
2018-12-02T03:25:21.986Z,9.60
2018-12-02T03:27:50.403Z,9.50
2018-12-02T03:30:19.818Z,9.60
2018-12-02T03:32:48.230Z,9.60
2018-12-02T03:35:21.474Z,9.60
2018-12-02T03:37:49.770Z,9.60
2018-12-02T03:40:21.356Z,9.60
2018-12-02T03:42:50.884Z,9.70
2018-12-02T03:45:20.123Z,9.60
2018-12-02T03:47:48.445Z,9.60
2018-12-02T03:50:18.128Z,9.60
2018-12-02T03:52:46.174Z,9.60
2018-12-02T03:55:14.536Z,9.60
2018-12-02T03:57:42.920Z,9.60
2018-12-02T04:00:19.844Z,9.60
2018-12-02T04:02:48.331Z,9.70
2018-12-02T04:05:19.763Z,9.70
2018-12-02T04:07:48.101Z,9.70
2018-12-02T04:10:17.202Z,9.70
2018-12-02T04:12:46.306Z,9.70
2018-12-02T04:15:15.438Z,9.70
2018-12-02T04:17:44.238Z,9.80
2018-12-02T04:20:13.345Z,9.70
2018-12-02T04:22:41.670Z,9.70
2018-12-02T04:25:11.120Z,9.80
2018-12-02T04:27:39.500Z,9.80
2018-12-02T04:30:11.921Z,9.80
2018-12-02T04:32:40.262Z,9.70
2018-12-02T04:35:09.820Z,9.70
2018-12-02T04:37:38.147Z,9.70
2018-12-02T04:40:07.954Z,9.70
2018-12-02T04:42:36.410Z,9.70
2018-12-02T04:45:05.712Z,9.60
2018-12-02T04:47:34.094Z,9.60
2018-12-02T04:50:02.406Z,9.50
2018-12-02T04:52:30.756Z,9.50
2018-12-02T04:55:00.054Z,9.50
2018-12-02T04:57:28.397Z,9.40
2018-12-02T04:59:56.705Z,9.40
2018-12-02T05:02:25.040Z,9.30
2018-12-02T05:04:53.346Z,9.30
2018-12-02T05:07:21.627Z,9.20
2018-12-02T05:09:49.900Z,9.20
2018-12-02T05:12:18.245Z,9.10
2018-12-02T05:14:46.652Z,9.10
2018-12-02T05:17:14.978Z,9.10
2018-12-02T05:19:43.620Z,9.10
2018-12-02T05:22:12.213Z,9.10
2018-12-02T05:24:40.461Z,9.10
2018-12-02T05:27:08.758Z,9.10
2018-12-02T05:29:37.031Z,9.10
2018-12-02T05:32:06.188Z,9.10
2018-12-02T05:34:34.570Z,9.10
2018-12-02T05:37:02.878Z,9.00
2018-12-02T05:39:31.388Z,9.00
2018-12-02T05:42:05.041Z,9.00
2018-12-02T05:44:33.316Z,9.00
2018-12-02T05:47:01.584Z,9.00
2018-12-02T05:49:30.103Z,9.00
2018-12-02T05:51:58.424Z,9.00
2018-12-02T05:54:26.738Z,8.90
2018-12-02T05:56:55.034Z,8.90
2018-12-02T05:59:23.310Z,8.90
2018-12-02T06:01:51.728Z,8.90
2018-12-02T06:04:20.090Z,8.80
2018-12-02T06:06:48.448Z,8.80
2018-12-02T06:09:16.809Z,8.80
2018-12-02T06:11:45.205Z,8.80
2018-12-02T06:14:13.539Z,8.80
2018-12-02T06:16:41.944Z,8.80
2018-12-02T06:19:10.323Z,8.70
2018-12-02T06:21:38.722Z,8.70
2018-12-02T06:24:07.083Z,8.70
2018-12-02T06:26:36.344Z,8.70
2018-12-02T06:29:04.616Z,8.70
2018-12-02T06:31:32.897Z,8.80
2018-12-02T06:34:01.224Z,8.80
2018-12-02T06:36:29.568Z,8.70
2018-12-02T06:38:57.864Z,8.70
2018-12-02T06:41:26.152Z,8.70
2018-12-02T06:43:54.483Z,8.70
2018-12-02T06:46:22.841Z,8.70
2018-12-02T06:48:51.376Z,8.70
2018-12-02T06:51:19.903Z,8.70
2018-12-02T06:53:48.274Z,8.70
2018-12-02T06:56:22.271Z,8.70
2018-12-02T06:59:04.200Z,8.70
2018-12-02T07:01:43.901Z,8.70
2018-12-02T07:04:22.334Z,8.70
2018-12-02T07:06:50.650Z,8.70
2018-12-02T07:09:19.032Z,8.70
2018-12-02T07:11:47.347Z,8.60
2018-12-02T07:14:15.661Z,8.60
2018-12-02T07:16:43.949Z,8.70
2018-12-02T07:19:16.878Z,8.60
2018-12-02T07:21:50.232Z,8.70
2018-12-02T07:24:20.688Z,8.70
2018-12-02T07:26:51.605Z,8.70
2018-12-02T07:29:19.987Z,8.70
2018-12-02T07:31:48.346Z,8.60
2018-12-02T07:34:16.686Z,8.70
2018-12-02T07:36:45.162Z,8.70
2018-12-02T07:41:22.330Z,8.70
2018-12-02T07:43:50.685Z,8.70
2018-12-02T07:46:19.080Z,8.70
2018-12-02T07:48:47.393Z,8.70
2018-12-02T07:51:15.753Z,8.70
2018-12-02T07:53:44.104Z,8.80
2018-12-02T07:56:12.665Z,8.80
2018-12-02T07:58:41.023Z,8.80
2018-12-02T08:01:09.370Z,8.80
2018-12-02T08:03:37.744Z,8.80
2018-12-02T08:06:06.013Z,8.80
2018-12-02T08:08:34.424Z,8.80
2018-12-02T08:11:02.690Z,8.80
2018-12-02T08:13:31.032Z,8.80
2018-12-02T08:15:59.300Z,8.90
2018-12-02T08:18:27.591Z,8.90
2018-12-02T08:20:55.874Z,8.90
2018-12-02T08:23:24.314Z,8.90
2018-12-02T08:25:52.620Z,8.90
2018-12-02T08:28:20.922Z,8.90
2018-12-02T08:30:49.201Z,8.90
2018-12-02T08:33:17.487Z,8.90
2018-12-02T08:35:46.056Z,8.90
2018-12-02T08:38:14.372Z,9.00
2018-12-02T08:40:42.666Z,9.00
2018-12-02T08:43:11.076Z,9.00
2018-12-02T08:45:39.403Z,9.00
2018-12-02T08:48:07.758Z,9.00
2018-12-02T08:50:36.068Z,9.00
2018-12-02T08:53:04.388Z,9.10
2018-12-02T08:55:32.704Z,9.10
2018-12-02T08:58:01.045Z,9.10
2018-12-02T09:00:29.394Z,9.10
2018-12-02T09:03:00.055Z,9.10
2018-12-02T09:05:28.390Z,9.10
2018-12-02T09:07:58.019Z,9.10
2018-12-02T09:10:27.430Z,9.10
2018-12-02T09:12:57.174Z,9.10
2018-12-02T09:15:25.524Z,9.10
2018-12-02T09:17:54.935Z,9.20
2018-12-02T09:20:29.486Z,9.20
2018-12-02T09:22:57.764Z,9.20
2018-12-02T09:25:26.859Z,9.20
2018-12-02T09:27:55.595Z,9.20
2018-12-02T09:30:25.437Z,9.20
2018-12-02T09:32:53.840Z,9.20
2018-12-02T09:35:22.118Z,9.20
2018-12-02T09:37:52.591Z,9.20
2018-12-02T09:40:20.976Z,9.20
2018-12-02T09:42:50.254Z,9.20
2018-12-02T09:45:26.023Z,9.30
2018-12-02T09:47:57.797Z,9.30
2018-12-02T09:50:26.236Z,9.30
2018-12-02T09:52:54.660Z,9.30
2018-12-02T09:55:25.357Z,9.30
2018-12-02T09:57:55.737Z,9.30
2018-12-02T10:00:24.193Z,9.30
2018-12-02T10:02:52.822Z,9.30
2018-12-02T10:05:21.117Z,9.30
2018-12-02T10:07:49.964Z,9.30
2018-12-02T10:10:22.572Z,9.30
2018-12-02T10:12:56.035Z,9.40
2018-12-02T10:15:24.389Z,9.40
2018-12-02T10:17:52.767Z,9.40
2018-12-02T10:20:21.058Z,9.40
2018-12-02T10:22:49.459Z,9.40
2018-12-02T10:25:18.753Z,9.50
2018-12-02T10:27:47.078Z,9.50
2018-12-02T10:30:18.391Z,9.50
2018-12-02T10:32:47.614Z,9.50
2018-12-02T10:35:15.962Z,9.60
2018-12-02T10:37:44.294Z,9.60
2018-12-02T10:40:16.492Z,9.60
2018-12-02T10:42:46.031Z,9.70
2018-12-02T10:45:19.949Z,9.70
2018-12-02T10:47:48.718Z,9.70
2018-12-02T10:50:20.076Z,9.70
2018-12-02T10:52:48.765Z,9.70
2018-12-02T10:55:54.467Z,9.80
2018-12-02T10:58:26.975Z,9.80
2018-12-02T11:01:01.665Z,9.80
2018-12-02T11:03:30.228Z,9.80
2018-12-02T11:05:59.581Z,9.90
2018-12-02T11:08:27.910Z,9.90
2018-12-02T11:10:56.212Z,10.00
2018-12-02T11:13:24.507Z,10.00
2018-12-02T11:15:52.778Z,10.00
2018-12-02T11:18:21.257Z,10.00
2018-12-02T11:20:49.554Z,10.10
2018-12-02T11:23:18.948Z,10.10
2018-12-02T11:25:47.280Z,10.10
2018-12-02T11:28:15.718Z,10.10
2018-12-02T11:30:44.677Z,10.20
2018-12-02T11:33:13.642Z,10.30
2018-12-02T11:35:41.941Z,10.30
2018-12-02T11:38:11.004Z,10.30
2018-12-02T11:40:41.363Z,10.40
2018-12-02T11:43:09.993Z,10.40
2018-12-02T11:45:38.460Z,10.50
2018-12-02T11:48:08.121Z,10.50
2018-12-02T11:50:36.638Z,10.60
2018-12-02T11:53:05.375Z,10.60
2018-12-02T11:55:33.658Z,10.60
2018-12-02T11:58:01.959Z,10.70
2018-12-02T12:00:31.632Z,10.80
2018-12-02T12:03:00.147Z,10.80
2018-12-02T12:05:28.566Z,10.90
2018-12-02T12:07:56.897Z,10.90
2018-12-02T12:10:27.897Z,10.90
2018-12-02T12:13:00.368Z,11.00
2018-12-02T12:15:29.537Z,11.00
2018-12-02T12:17:59.009Z,11.10
2018-12-02T12:20:31.555Z,11.10
2018-12-02T12:23:00.462Z,11.10
2018-12-02T12:25:28.878Z,11.10
2018-12-02T12:27:57.962Z,11.20
2018-12-02T12:30:29.412Z,11.20
2018-12-02T12:32:57.836Z,11.20
2018-12-02T12:35:27.175Z,11.30
2018-12-02T12:38:00.125Z,11.30
2018-12-02T12:40:31.658Z,11.40
2018-12-02T12:43:07.638Z,11.40
2018-12-02T12:45:36.014Z,11.50
2018-12-02T12:48:04.417Z,11.50
2018-12-02T12:50:32.768Z,11.60
2018-12-02T12:53:01.902Z,11.60
2018-12-02T12:55:30.283Z,11.60
2018-12-02T12:57:59.081Z,11.60
2018-12-02T13:00:27.461Z,11.70
2018-12-02T13:02:55.844Z,11.70
2018-12-02T13:05:25.586Z,11.70
2018-12-02T13:07:55.759Z,11.70
2018-12-02T13:10:25.030Z,11.70
2018-12-02T13:12:53.498Z,11.80
2018-12-02T13:15:22.676Z,11.80
2018-12-02T13:17:56.687Z,11.80
2018-12-02T13:20:26.556Z,11.80
2018-12-02T13:22:54.929Z,11.80
2018-12-02T13:25:23.413Z,11.90
2018-12-02T13:27:51.755Z,11.90
2018-12-02T13:30:20.662Z,11.90
2018-12-02T13:32:52.229Z,11.90
2018-12-02T13:35:20.530Z,11.90
2018-12-02T13:37:48.796Z,11.90
2018-12-02T13:40:20.862Z,12.00
2018-12-02T13:42:52.628Z,12.00
2018-12-02T13:45:22.480Z,12.00
2018-12-02T13:47:51.006Z,12.00
2018-12-02T13:50:19.911Z,12.00
2018-12-02T13:52:49.352Z,12.00
2018-12-02T13:55:18.827Z,12.10
2018-12-02T13:57:47.537Z,12.10
2018-12-02T14:00:20.902Z,12.10
2018-12-02T14:02:51.409Z,12.10
2018-12-02T14:05:19.752Z,12.10
2018-12-02T14:07:48.097Z,12.10
2018-12-02T14:10:16.453Z,12.10
2018-12-02T14:12:52.562Z,12.10
2018-12-02T14:16:32.327Z,12.20
2018-12-02T14:19:03.374Z,12.30
2018-12-02T14:21:31.758Z,12.30
2018-12-02T14:24:00.168Z,12.40
2018-12-02T14:26:28.482Z,12.40
2018-12-02T14:28:58.858Z,12.50
2018-12-02T14:31:28.663Z,12.50
2018-12-02T14:33:57.231Z,12.50
2018-12-02T14:36:25.515Z,12.60
2018-12-02T14:38:53.854Z,12.60
2018-12-02T14:41:22.153Z,12.60
2018-12-02T14:43:50.465Z,12.60
2018-12-02T14:46:18.865Z,12.70
2018-12-02T14:48:47.185Z,12.70
2018-12-02T14:51:16.399Z,12.70
2018-12-02T14:53:44.714Z,12.70
2018-12-02T14:56:14.068Z,12.80
2018-12-02T14:58:42.459Z,12.70
2018-12-02T15:01:27.363Z,12.70
2018-12-02T15:03:56.065Z,12.80
2018-12-02T15:06:24.420Z,12.80
2018-12-02T15:08:52.711Z,12.80
2018-12-02T15:11:21.169Z,12.80
2018-12-02T15:13:50.881Z,12.80
2018-12-02T15:16:20.114Z,12.80
2018-12-02T15:18:48.432Z,12.80
2018-12-02T15:21:22.611Z,12.80
2018-12-02T15:23:50.933Z,12.70
2018-12-02T15:26:20.085Z,12.70
2018-12-02T15:28:49.440Z,12.70
2018-12-02T15:31:17.852Z,12.70
2018-12-02T15:33:47.196Z,12.70
2018-12-02T15:36:15.461Z,12.70
2018-12-02T15:38:43.753Z,12.70
2018-12-02T15:41:12.091Z,12.80
2018-12-02T15:43:44.058Z,12.80
2018-12-02T15:46:12.543Z,12.80
2018-12-02T15:48:41.007Z,12.90
2018-12-02T15:51:09.419Z,12.90
2018-12-02T15:53:37.744Z,12.80
2018-12-02T15:56:06.561Z,12.80
2018-12-02T15:58:35.220Z,12.80
2018-12-02T16:01:04.812Z,12.90
2018-12-02T16:03:33.152Z,12.90
2018-12-02T16:06:01.489Z,12.90
2018-12-02T16:08:29.925Z,12.80
2018-12-02T16:10:58.430Z,12.80
2018-12-02T16:13:27.091Z,12.80
2018-12-02T16:15:55.420Z,12.70
2018-12-02T16:18:23.805Z,12.70
2018-12-02T16:20:53.461Z,12.70
2018-12-02T16:23:24.511Z,12.70
2018-12-02T16:25:53.375Z,12.70
2018-12-02T16:28:22.370Z,12.70
2018-12-02T16:30:54.320Z,12.70
2018-12-02T16:33:23.110Z,12.70
2018-12-02T16:35:51.429Z,12.70
2018-12-02T16:38:19.856Z,12.70
2018-12-02T16:40:48.230Z,12.70
2018-12-02T16:43:16.830Z,12.70
2018-12-02T16:45:45.240Z,12.70
2018-12-02T16:48:13.577Z,12.80
2018-12-02T16:50:43.539Z,12.70
2018-12-02T16:53:21.357Z,12.70
2018-12-02T16:55:55.957Z,12.70
2018-12-02T16:58:59.921Z,12.80
2018-12-02T17:01:32.165Z,12.70
2018-12-02T17:04:01.795Z,12.70
2018-12-02T17:06:30.300Z,12.60
2018-12-02T17:08:59.042Z,12.60
2018-12-02T17:11:28.135Z,12.60
2018-12-02T17:13:56.489Z,12.50
2018-12-02T17:16:24.931Z,12.50
2018-12-02T17:18:53.397Z,12.50
2018-12-02T17:21:21.670Z,12.50
2018-12-02T17:23:50.313Z,12.50
2018-12-02T17:26:18.871Z,12.60
2018-12-02T17:28:48.619Z,12.50
2018-12-02T17:31:20.071Z,12.50
2018-12-02T17:33:48.438Z,12.50
2018-12-02T17:36:16.935Z,12.50
2018-12-02T17:38:46.023Z,12.50
2018-12-02T17:41:16.020Z,12.50
2018-12-02T17:43:44.718Z,12.50
2018-12-02T17:46:13.805Z,12.40
2018-12-02T17:48:42.453Z,12.40
2018-12-02T17:51:10.767Z,12.30
2018-12-02T17:53:41.073Z,12.30
2018-12-02T17:56:09.468Z,12.30
2018-12-02T17:58:37.852Z,12.30
2018-12-02T18:01:06.921Z,12.30
2018-12-02T18:03:36.322Z,12.30
2018-12-02T18:06:05.728Z,12.30
2018-12-02T18:08:34.101Z,12.30
2018-12-02T18:11:02.689Z,12.30
2018-12-02T18:13:32.851Z,12.30
2018-12-02T18:16:01.448Z,12.40
2018-12-02T18:18:30.056Z,12.40
2018-12-02T18:20:58.324Z,12.40
2018-12-02T18:23:27.024Z,12.30
2018-12-02T18:25:55.307Z,12.30
2018-12-02T18:28:26.917Z,12.30
2018-12-02T18:30:55.379Z,12.20
2018-12-02T18:33:23.739Z,12.20
2018-12-02T18:36:25.547Z,12.20
2018-12-02T18:38:53.875Z,12.20
2018-12-02T18:41:29.962Z,12.20
2018-12-02T18:43:58.211Z,12.20
2018-12-02T18:46:26.623Z,12.20
2018-12-02T18:48:54.896Z,12.10
2018-12-02T18:51:24.562Z,12.20
2018-12-02T18:53:52.897Z,12.20
2018-12-02T18:56:21.263Z,12.20
2018-12-02T18:58:49.569Z,12.20
2018-12-02T19:01:17.970Z,12.10
2018-12-02T19:03:46.272Z,12.10
2018-12-02T19:06:16.248Z,12.20
2018-12-02T19:08:44.595Z,12.30
2018-12-02T19:11:13.044Z,12.30
2018-12-02T19:13:43.674Z,12.30
2018-12-02T19:16:10.052Z,12.40
2018-12-02T19:18:39.523Z,12.40
2018-12-02T19:21:12.841Z,12.40
2018-12-02T19:23:41.135Z,12.40
2018-12-02T19:26:09.543Z,12.40
2018-12-02T19:28:37.935Z,12.40
2018-12-02T19:31:06.291Z,12.40
2018-12-02T19:33:34.776Z,12.40
2018-12-02T19:36:06.393Z,12.40
2018-12-02T19:38:34.894Z,12.40
2018-12-02T19:41:03.226Z,12.40
2018-12-02T19:43:31.732Z,12.40
2018-12-02T19:46:00.056Z,12.40
2018-12-02T19:48:28.395Z,12.40
2018-12-02T19:50:56.849Z,12.40
2018-12-02T19:53:25.124Z,12.40
2018-12-02T19:55:53.401Z,12.40
2018-12-02T19:58:21.817Z,12.40
2018-12-02T20:00:50.204Z,12.40
2018-12-02T20:03:18.571Z,12.40
2018-12-02T20:05:48.152Z,12.40
2018-12-02T20:08:16.851Z,12.40
2018-12-02T20:10:51.257Z,12.30
2018-12-02T20:13:20.555Z,12.30
2018-12-02T20:15:55.876Z,12.30
2018-12-02T20:18:24.299Z,12.30
2018-12-02T20:20:55.753Z,12.30
2018-12-02T20:23:29.759Z,12.40
2018-12-02T20:25:59.906Z,12.30
2018-12-02T20:28:31.895Z,12.30
2018-12-02T20:31:02.121Z,12.30
2018-12-02T20:33:30.515Z,12.30
2018-12-02T20:35:58.744Z,12.30
2018-12-02T20:38:27.124Z,12.30
2018-12-02T20:40:55.490Z,12.30
2018-12-02T20:43:24.201Z,12.30
2018-12-02T20:45:52.542Z,12.30
2018-12-02T20:48:21.221Z,12.30
2018-12-02T20:50:52.978Z,12.30
2018-12-02T20:53:21.281Z,12.30
2018-12-02T20:55:49.794Z,12.30
2018-12-02T20:58:18.178Z,12.30
2018-12-02T21:00:46.820Z,12.30
2018-12-02T21:03:24.310Z,12.30
2018-12-02T21:06:03.797Z,12.30
2018-12-02T21:08:32.160Z,12.40
2018-12-02T21:11:00.926Z,12.40
2018-12-02T21:13:29.262Z,12.40
2018-12-02T21:15:57.712Z,12.40
2018-12-02T21:18:26.070Z,12.30
2018-12-02T21:20:54.364Z,12.30
2018-12-02T21:23:22.975Z,12.30
2018-12-02T21:25:52.196Z,12.40
2018-12-02T21:28:22.412Z,12.40
2018-12-02T21:30:50.749Z,12.40
2018-12-02T21:33:19.030Z,12.40
2018-12-02T21:35:47.582Z,12.40
2018-12-02T21:38:15.972Z,12.40
2018-12-02T21:40:44.821Z,12.40
2018-12-02T21:43:13.702Z,12.40
2018-12-02T21:45:42.204Z,12.40
2018-12-02T21:48:13.270Z,12.40
2018-12-02T21:50:43.032Z,12.40
2018-12-02T21:53:11.438Z,12.50
2018-12-02T21:55:45.251Z,12.50
2018-12-02T21:58:13.492Z,12.50
2018-12-02T22:00:45.410Z,12.40
2018-12-02T22:03:14.776Z,12.40
2018-12-02T22:05:43.156Z,12.40
2018-12-02T22:08:11.462Z,12.40
2018-12-02T22:10:40.100Z,12.40
2018-12-02T22:13:09.711Z,12.40
2018-12-02T22:15:38.195Z,12.40
2018-12-02T22:18:06.914Z,12.40
2018-12-02T22:20:35.388Z,12.40
2018-12-02T22:23:03.790Z,12.40
2018-12-02T22:25:32.059Z,12.40
2018-12-02T22:28:00.407Z,12.30
2018-12-02T22:30:28.804Z,12.40
2018-12-02T22:32:57.122Z,12.30
2018-12-02T22:35:26.443Z,12.40
2018-12-02T22:37:54.846Z,12.40
2018-12-02T22:40:24.750Z,12.40
2018-12-02T22:42:54.443Z,12.40
2018-12-02T22:45:31.555Z,12.40
2018-12-02T22:48:00.710Z,12.40
2018-12-02T22:50:31.769Z,12.40
2018-12-02T22:53:02.208Z,12.30
2018-12-02T22:55:30.523Z,12.30
2018-12-02T22:57:58.855Z,12.30
2018-12-02T23:00:34.343Z,12.30
2018-12-02T23:03:05.716Z,12.30
2018-12-02T23:05:34.066Z,12.30
2018-12-02T23:08:02.622Z,12.20
2018-12-02T23:10:31.359Z,12.20
2018-12-02T23:12:59.766Z,12.20
2018-12-02T23:15:28.377Z,12.20
2018-12-02T23:17:56.749Z,12.20
2018-12-02T23:20:25.122Z,12.20
2018-12-02T23:22:53.454Z,12.20
2018-12-02T23:25:21.919Z,12.20
2018-12-02T23:27:50.196Z,12.20
2018-12-02T23:30:25.695Z,12.20
2018-12-02T23:32:54.194Z,12.20
2018-12-02T23:35:22.604Z,12.20
2018-12-02T23:37:51.220Z,12.20
2018-12-02T23:40:21.157Z,12.30
2018-12-02T23:42:49.472Z,12.30
2018-12-02T23:45:18.053Z,12.30
2018-12-02T23:47:46.457Z,12.30
2018-12-02T23:50:16.066Z,12.30
2018-12-02T23:52:45.209Z,12.30
2018-12-02T23:55:15.857Z,12.30
2018-12-02T23:57:45.777Z,12.30
